Time;durP1;ratioP1;P1;durP2;ratioP2;P2;SDS_P1;SDS_P2;PMS_P1;PMS_P2;Temp;Humidity;BMP_temperature;BMP_pressure;BME280_temperature;BME280_humidity;BME280_pressure;Samples;Min_cycle;Max_cycle;Signal;HPM_P1;HPM_P2
2024/01/23 00:00:17;;;;;;;2.70;1.00;;;;;;;4.68;100.00;96366.09;2058471;28;20100;-59
2024/01/23 00:01:19;;;;;;;4.45;1.20;;;;;;;4.73;100.00;96392.59;2058085;28;20066;-59
2024/01/23 00:02:20;;;;;;;4.97;1.77;;;;;;;4.74;100.00;96396.88;2058152;28;20506;-59
2024/01/23 00:03:25;;;;;;;6.13;1.83;;;;;;;4.76;100.00;96389.97;2058224;28;20042;-59
2024/01/23 00:04:26;;;;;;;2.13;0.80;;;;;;;4.71;100.00;96381.50;2058397;28;20403;-60
2024/01/23 00:05:27;;;;;;;5.28;1.27;;;;;;;4.73;100.00;96393.47;2058271;28;20038;-59
2024/01/23 00:06:28;;;;;;;2.30;0.85;;;;;;;4.74;100.00;96391.72;2058429;28;20046;-59
2024/01/23 00:07:29;;;;;;;4.80;1.20;;;;;;;4.71;100.00;96399.50;2058307;28;20031;-59
2024/01/23 00:08:30;;;;;;;4.88;1.02;;;;;;;4.71;100.00;96390.06;2058124;28;20383;-61
2024/01/23 00:09:31;;;;;;;4.05;1.27;;;;;;;4.74;100.00;96394.28;2058309;28;20046;-60
2024/01/23 00:10:32;;;;;;;3.15;0.98;;;;;;;4.75;100.00;96394.25;2057876;28;20051;-60
2024/01/23 00:11:33;;;;;;;2.28;0.93;;;;;;;4.77;100.00;96399.38;2058140;28;20467;-60
2024/01/23 00:12:34;;;;;;;2.10;0.90;;;;;;;4.74;100.00;96404.59;2025981;28;1063231;-60
2024/01/23 00:13:36;;;;;;;3.53;1.02;;;;;;;4.71;100.00;96402.06;2066655;28;20042;-60
2024/01/23 00:14:37;;;;;;;5.32;1.45;;;;;;;4.72;100.00;96416.63;2066665;28;20045;-60
2024/01/23 00:15:38;;;;;;;2.03;0.85;;;;;;;4.76;100.00;96406.25;2066682;28;20081;-60
2024/01/23 00:16:39;;;;;;;3.95;0.80;;;;;;;4.81;100.00;96413.88;2066138;28;20494;-59
2024/01/23 00:17:40;;;;;;;5.40;1.40;;;;;;;4.80;100.00;96404.47;2066746;28;20042;-59
2024/01/23 00:18:41;;;;;;;5.32;1.08;;;;;;;4.84;100.00;96421.56;2065772;28;20054;-58
2024/01/23 00:19:42;;;;;;;2.92;1.17;;;;;;;4.80;100.00;96420.75;2066370;28;20058;-59
2024/01/23 00:20:43;;;;;;;2.17;0.80;;;;;;;4.80;100.00;96401.91;2066222;28;20478;-60
2024/01/23 00:21:44;;;;;;;2.17;0.88;;;;;;;4.81;100.00;96430.19;2066907;28;20046;-63
2024/01/23 00:22:46;;;;;;;4.75;1.00;;;;;;;4.75;100.00;96434.56;2066749;28;20050;-60
2024/01/23 00:23:47;;;;;;;5.63;0.95;;;;;;;4.68;100.00;96427.81;2067017;28;20438;-60
2024/01/23 00:24:48;;;;;;;3.45;0.88;;;;;;;4.54;100.00;96426.34;2066577;28;20050;-60
2024/01/23 00:25:51;;;;;;;4.53;1.20;;;;;;;4.40;100.00;96398.28;2066592;28;20054;-60
2024/01/23 00:26:52;;;;;;;2.60;0.60;;;;;;;4.35;100.00;96394.09;2066246;28;20062;-60
2024/01/23 00:27:53;;;;;;;3.92;0.65;;;;;;;4.33;100.00;96390.69;2065935;28;20061;-59
2024/01/23 00:28:54;;;;;;;1.90;0.47;;;;;;;4.36;100.00;96400.94;2066228;28;20046;-59
2024/01/23 00:29:55;;;;;;;1.90;0.60;;;;;;;4.36;100.00;96398.38;2066519;28;20423;-59
2024/01/23 00:30:56;;;;;;;2.10;0.32;;;;;;;4.36;100.00;96416.38;2066324;28;20050;-59
2024/01/23 00:31:57;;;;;;;1.95;0.30;;;;;;;4.38;100.00;96399.19;2065520;28;20046;-58
2024/01/23 00:32:59;;;;;;;1.25;0.50;;;;;;;4.39;100.00;96400.91;2066121;28;20054;-59
2024/01/23 00:34:00;;;;;;;1.50;0.50;;;;;;;4.45;100.00;96408.50;2066463;28;20434;-59
2024/01/23 00:35:01;;;;;;;3.13;0.70;;;;;;;4.46;100.00;96417.06;2066433;28;20049;-59
2024/01/23 00:36:03;;;;;;;0.85;0.50;;;;;;;4.40;100.00;96412.88;2066263;28;20057;-58
2024/01/23 00:37:04;;;;;;;2.70;0.70;;;;;;;4.35;100.00;96414.66;2066185;28;20053;-58
2024/01/23 00:38:06;;;;;;;1.30;0.50;;;;;;;4.32;100.00;96409.56;2066294;28;20042;-58
2024/01/23 00:39:07;;;;;;;3.45;0.75;;;;;;;4.32;100.00;96407.00;2065626;28;20082;-58
2024/01/23 00:40:11;;;;;;;1.38;0.55;;;;;;;4.29;100.00;96412.19;2066314;28;20061;-58
2024/01/23 00:41:12;;;;;;;1.10;0.52;;;;;;;4.30;100.00;96412.16;2066123;28;20098;-57
2024/01/23 00:42:13;;;;;;;2.13;0.75;;;;;;;4.29;100.00;96417.34;2065671;28;20521;-58
2024/01/23 00:43:15;;;;;;;1.92;0.70;;;;;;;4.26;100.00;96414.81;2065864;28;20073;-58
2024/01/23 00:44:16;;;;;;;5.63;0.73;;;;;;;4.23;100.00;96409.72;2066080;28;20096;-58
2024/01/23 00:45:17;;;;;;;2.67;0.90;;;;;;;4.19;100.00;96419.19;2066340;28;20493;-58
2024/01/23 00:46:18;;;;;;;2.50;0.75;;;;;;;4.20;100.00;96421.75;2066458;28;20046;-57
2024/01/23 00:47:20;;;;;;;1.25;0.60;;;;;;;4.18;100.00;96410.63;2066684;28;20049;-60
2024/01/23 00:48:21;;;;;;;2.85;0.70;;;;;;;4.23;100.00;96413.16;2066072;28;20494;-57
2024/01/23 00:49:22;;;;;;;4.97;0.80;;;;;;;4.19;100.00;96420.03;2065198;28;20054;-58
2024/01/23 00:50:23;;;;;;;1.75;0.90;;;;;;;4.13;100.00;96403.88;2065681;28;20080;-57
2024/01/23 00:51:24;;;;;;;1.02;0.30;;;;;;;4.18;100.00;96412.38;2065865;28;20046;-57
2024/01/23 00:52:25;;;;;;;1.77;0.75;;;;;;;4.12;100.00;96415.88;2066234;28;20046;-58
2024/01/23 00:53:26;;;;;;;1.00;0.40;;;;;;;4.08;100.00;96421.94;2066053;28;20475;-57
2024/01/23 00:54:28;;;;;;;2.28;0.70;;;;;;;4.07;100.00;96412.53;2066093;28;20057;-57
2024/01/23 00:55:29;;;;;;;1.02;0.50;;;;;;;4.10;100.00;96409.91;2066387;28;20045;-57
2024/01/23 00:56:30;;;;;;;3.45;1.00;;;;;;;4.08;100.00;96415.94;2066235;28;20505;-57
2024/01/23 00:57:32;;;;;;;1.00;0.60;;;;;;;4.10;100.00;96399.63;2066504;28;20045;-58
2024/01/23 00:58:33;;;;;;;1.40;0.60;;;;;;;4.08;100.00;96410.81;2066558;28;20050;-57
2024/01/23 00:59:34;;;;;;;1.10;0.40;;;;;;;4.05;100.00;96416.84;2066275;28;20050;-58
2024/01/23 01:00:35;;;;;;;1.50;0.45;;;;;;;4.09;100.00;96417.63;2066261;28;20053;-57
2024/01/23 01:01:36;;;;;;;1.83;0.55;;;;;;;4.08;100.00;96411.66;2065239;28;20065;-57
2024/01/23 01:02:37;;;;;;;1.50;0.50;;;;;;;4.13;100.00;96425.28;2065694;28;20057;-56
2024/01/23 01:03:39;;;;;;;0.70;0.50;;;;;;;4.14;100.00;96410.69;2065368;28;20065;-57
2024/01/23 01:04:42;;;;;;;2.47;0.43;;;;;;;4.15;100.00;96397.84;2066391;28;20046;-56
2024/01/23 01:05:45;;;;;;;4.03;0.93;;;;;;;4.15;100.00;96405.53;2065652;28;20055;-57
2024/01/23 01:06:46;;;;;;;2.70;0.55;;;;;;;4.22;100.00;96405.44;2065939;28;20057;-57
2024/01/23 01:07:47;;;;;;;0.77;0.25;;;;;;;4.16;100.00;96407.22;2066280;28;20060;-57
2024/01/23 01:08:48;;;;;;;1.67;0.47;;;;;;;4.12;100.00;96426.16;2065716;28;20069;-57
2024/01/23 01:09:50;;;;;;;2.50;0.30;;;;;;;4.14;100.00;96420.97;2057209;28;20057;-57
2024/01/23 01:10:51;;;;;;;2.28;0.45;;;;;;;4.07;100.00;96421.97;2057431;28;20057;-56
2024/01/23 01:11:52;;;;;;;2.05;0.52;;;;;;;3.99;100.00;96414.38;2065991;28;20061;-57
2024/01/23 01:12:53;;;;;;;2.45;0.80;;;;;;;3.96;100.00;96407.56;2065049;28;20410;-57
2024/01/23 01:13:54;;;;;;;1.85;0.30;;;;;;;3.94;100.00;96408.44;2065801;28;20058;-56
2024/01/23 01:14:55;;;;;;;3.85;0.75;;;;;;;3.91;100.00;96422.19;2065990;28;20050;-56
2024/01/23 01:15:56;;;;;;;2.22;0.55;;;;;;;3.91;100.00;96422.19;2066141;28;20069;-57
2024/01/23 01:16:57;;;;;;;2.58;0.70;;;;;;;3.90;100.00;96427.34;2065353;28;20499;-56
2024/01/23 01:17:58;;;;;;;1.13;0.35;;;;;;;3.88;100.00;96429.94;2065991;28;20046;-56
2024/01/23 01:19:00;;;;;;;1.90;0.45;;;;;;;3.85;100.00;96426.53;2065969;28;20042;-57
2024/01/23 01:20:01;;;;;;;4.13;0.73;;;;;;;3.84;100.00;96432.56;2065909;28;20054;-56
2024/01/23 01:21:02;;;;;;;2.22;0.38;;;;;;;3.87;100.00;96411.97;2065858;28;20478;-56
2024/01/23 01:22:05;;;;;;;1.33;0.50;;;;;;;3.81;100.00;96424.91;2066097;28;20046;-56
2024/01/23 01:23:06;;;;;;;2.58;1.05;;;;;;;3.76;100.00;96424.97;2065653;28;20058;-56
2024/01/23 01:24:08;;;;;;;4.32;0.50;;;;;;;3.80;100.00;96425.78;2066042;28;20046;-56
2024/01/23 01:25:09;;;;;;;1.58;0.90;;;;;;;3.76;100.00;96423.22;2065728;28;20062;-56
2024/01/23 01:26:10;;;;;;;4.13;0.80;;;;;;;3.79;100.00;96427.47;2057218;28;20043;-56
2024/01/23 01:27:11;;;;;;;3.75;0.47;;;;;;;3.82;100.00;96421.44;2057597;28;20495;-56
2024/01/23 01:28:14;;;;;;;1.10;0.35;;;;;;;3.76;100.00;96430.94;2065792;28;20053;-56
2024/01/23 01:29:15;;;;;;;3.53;0.70;;;;;;;3.80;100.00;96428.34;2065839;28;20053;-56
2024/01/23 01:30:16;;;;;;;1.90;0.60;;;;;;;3.71;100.00;96421.59;2066024;28;20046;-56
2024/01/23 01:31:17;;;;;;;0.80;0.40;;;;;;;3.71;100.00;96422.44;2065251;28;20046;-56
2024/01/23 01:32:18;;;;;;;1.55;0.60;;;;;;;3.74;100.00;96427.56;2064296;28;20042;-56
2024/01/23 01:33:20;;;;;;;1.55;0.52;;;;;;;3.71;100.00;96419.88;2066042;28;20054;-56
2024/01/23 01:34:21;;;;;;;3.55;0.57;;;;;;;3.71;100.00;96440.41;2065438;28;20050;-55
2024/01/23 01:35:22;;;;;;;0.95;0.40;;;;;;;3.69;100.00;96443.91;2065348;28;20054;-56
2024/01/23 01:36:23;;;;;;;3.92;0.73;;;;;;;3.68;100.00;96448.19;2066095;28;20038;-56
2024/01/23 01:37:25;;;;;;;0.88;0.32;;;;;;;3.63;100.00;96449.94;2066001;28;20046;-55
2024/01/23 01:38:26;;;;;;;1.67;0.60;;;;;;;3.58;100.00;96449.16;2065411;28;20157;-55
2024/01/23 01:39:27;;;;;;;1.73;0.77;;;;;;;3.54;100.00;96456.06;2065297;28;20041;-56
2024/01/23 01:40:28;;;;;;;6.43;1.08;;;;;;;3.52;100.00;96457.78;2066023;28;20434;-56
2024/01/23 01:41:29;;;;;;;2.20;0.63;;;;;;;3.45;100.00;96456.19;2065915;28;20043;-56
2024/01/23 01:42:30;;;;;;;2.65;0.88;;;;;;;3.43;100.00;96441.66;2066280;28;20046;-57
2024/01/23 01:43:32;;;;;;;5.35;0.70;;;;;;;3.46;100.00;96457.88;2065867;28;20050;-56
2024/01/23 01:44:33;;;;;;;6.40;0.98;;;;;;;3.46;100.00;96452.72;2066766;28;20050;-56
2024/01/23 01:45:34;;;;;;;3.50;0.80;;;;;;;3.44;100.00;96451.06;2058382;28;20472;-57
2024/01/23 01:46:36;;;;;;;2.30;0.95;;;;;;;3.41;100.00;96449.38;2058071;28;20042;-56
2024/01/23 01:47:39;;;;;;;3.60;0.75;;;;;;;3.42;100.00;96461.34;2057347;28;20039;-56
2024/01/23 01:48:41;;;;;;;3.15;0.70;;;;;;;3.41;100.00;96448.53;2057482;28;20051;-56
2024/01/23 01:49:42;;;;;;;2.05;0.85;;;;;;;3.39;100.00;96451.09;2057044;28;20053;-56
2024/01/23 01:50:43;;;;;;;6.68;0.70;;;;;;;3.42;100.00;96458.78;2057547;28;20077;-56
2024/01/23 01:51:44;;;;;;;4.85;1.42;;;;;;;3.33;100.00;96453.75;2065295;28;20073;-57
2024/01/23 01:52:45;;;;;;;3.60;0.93;;;;;;;3.33;100.00;96455.47;2065759;28;20054;-56
2024/01/23 01:53:46;;;;;;;3.50;0.80;;;;;;;3.30;100.00;96454.63;2057143;28;20054;-57
2024/01/23 01:54:48;;;;;;;2.13;1.00;;;;;;;3.26;100.00;96452.97;2056290;28;20051;-56
2024/01/23 01:55:49;;;;;;;2.78;0.88;;;;;;;3.25;100.00;96464.09;2049250;29;20055;-56
2024/01/23 01:56:50;;;;;;;4.53;0.80;;;;;;;3.19;100.00;96459.03;2048176;29;20070;-56
2024/01/23 01:57:52;;;;;;;4.68;0.90;;;;;;;3.26;100.00;96470.06;2057292;28;20047;-56
2024/01/23 01:58:53;;;;;;;2.63;0.75;;;;;;;3.25;100.00;96474.38;2057340;28;20051;-56
2024/01/23 01:59:54;;;;;;;3.20;0.60;;;;;;;3.30;100.00;96462.34;2057221;28;20402;-56
2024/01/23 02:00:55;;;;;;;3.20;0.88;;;;;;;3.33;100.00;96469.16;2057094;28;20051;-56
2024/01/23 02:01:56;;;;;;;6.15;1.42;;;;;;;3.33;100.00;96471.72;2057350;28;20039;-56
2024/01/23 02:02:57;;;;;;;1.05;0.50;;;;;;;3.25;100.00;96474.38;2041498;29;20504;-56
2024/01/23 02:03:58;;;;;;;4.65;1.05;;;;;;;3.37;100.00;96472.53;2041378;28;20046;-56
2024/01/23 02:04:59;;;;;;;12.02;1.70;;;;;;;3.35;100.00;96470.00;2057112;28;20058;-56
2024/01/23 02:06:01;;;;;;;2.65;0.68;;;;;;;3.31;100.00;96464.06;2049041;29;20066;-56
2024/01/23 02:07:02;;;;;;;3.20;1.05;;;;;;;3.34;100.00;96480.25;2049443;28;20451;-56
2024/01/23 02:08:04;;;;;;;3.70;0.95;;;;;;;3.32;100.00;96475.16;2065917;28;20034;-56
2024/01/23 02:09:05;;;;;;;3.35;0.93;;;;;;;3.34;100.00;96458.00;2065489;28;20102;-56
2024/01/23 02:10:06;;;;;;;4.05;0.93;;;;;;;3.35;100.00;96464.00;2065747;28;20471;-55
2024/01/23 02:11:07;;;;;;;3.28;0.85;;;;;;;3.29;100.00;96463.22;2065276;28;20054;-55
2024/01/23 02:12:08;;;;;;;1.80;0.73;;;;;;;3.28;100.00;96460.66;2065538;28;20458;-56
2024/01/23 02:13:11;;;;;;;3.38;0.82;;;;;;;3.33;100.00;96464.00;2065880;28;20061;-55
2024/01/23 02:14:12;;;;;;;2.55;0.77;;;;;;;3.33;100.00;96470.88;2065818;28;20053;-56
2024/01/23 02:15:13;;;;;;;1.45;0.45;;;;;;;3.36;100.00;96463.13;2065454;28;20517;-56
2024/01/23 02:16:14;;;;;;;4.03;0.90;;;;;;;3.36;100.00;96463.97;2065657;28;20053;-56
2024/01/23 02:17:15;;;;;;;2.42;0.63;;;;;;;3.37;100.00;96464.81;2056876;28;20050;-56
2024/01/23 02:18:16;;;;;;;2.05;0.60;;;;;;;3.37;100.00;96469.94;2057061;28;20506;-55
2024/01/23 02:19:17;;;;;;;5.50;0.88;;;;;;;3.35;100.00;96479.41;2065590;28;20042;-55
2024/01/23 02:20:19;;;;;;;3.63;1.25;;;;;;;3.39;100.00;96463.09;2065958;28;20046;-56
2024/01/23 02:21:20;;;;;;;3.80;0.82;;;;;;;3.39;100.00;96468.22;2065516;28;20042;-56
2024/01/23 02:22:21;;;;;;;3.72;0.60;;;;;;;3.38;100.00;96477.66;2065135;28;20050;-55
2024/01/23 02:23:28;;;;;;;1.58;0.70;;;;;;;3.33;100.00;96470.88;2064601;28;20050;-56
2024/01/23 02:24:29;;;;;;;4.88;1.00;;;;;;;3.40;100.00;96477.66;2065373;28;20375;-56
2024/01/23 02:25:30;;;;;;;4.72;1.48;;;;;;;3.41;100.00;96489.59;2064743;28;20054;-56
2024/01/23 02:26:31;;;;;;;4.32;0.90;;;;;;;3.39;100.00;96491.34;2065405;28;20038;-56
2024/01/23 02:27:33;;;;;;;1.92;0.57;;;;;;;3.34;100.00;96493.09;2065042;28;20058;-56
2024/01/23 02:28:34;;;;;;;3.70;1.13;;;;;;;3.31;100.00;96488.84;2065307;28;20461;-56
2024/01/23 02:29:37;;;;;;;4.22;1.10;;;;;;;3.24;100.00;96487.22;2065567;28;20049;-55
2024/01/23 02:30:38;;;;;;;3.45;1.25;;;;;;;3.21;100.00;96477.00;2065259;28;20042;-56
2024/01/23 02:31:39;;;;;;;3.28;0.90;;;;;;;3.22;100.00;96478.69;2065898;28;20050;-56
2024/01/23 02:32:43;;;;;;;4.25;0.90;;;;;;;3.20;100.00;96485.56;2064476;28;20042;-55
2024/01/23 02:33:44;;;;;;;7.65;0.75;;;;;;;3.20;100.00;96478.69;2065089;28;20046;-56
2024/01/23 02:34:45;;;;;;;1.10;0.50;;;;;;;3.20;100.00;96481.25;2064827;28;20054;-56
2024/01/23 02:35:47;;;;;;;2.47;0.70;;;;;;;3.22;100.00;96479.53;2065542;28;20395;-56
2024/01/23 02:36:48;;;;;;;2.78;0.73;;;;;;;3.24;100.00;96479.53;2064865;28;20054;-56
2024/01/23 02:37:49;;;;;;;3.25;0.60;;;;;;;3.25;100.00;96486.34;2064999;28;20050;-56
2024/01/23 02:38:50;;;;;;;4.20;0.73;;;;;;;3.32;100.00;96493.13;2065165;28;20548;-56
2024/01/23 02:39:51;;;;;;;2.08;0.65;;;;;;;3.33;100.00;96492.25;2064789;28;20058;-56
2024/01/23 02:40:52;;;;;;;2.83;1.00;;;;;;;3.32;100.00;96475.16;2055952;28;20074;-59
2024/01/23 02:41:53;;;;;;;3.00;1.00;;;;;;;3.37;100.00;96487.94;2055812;28;20051;-56
2024/01/23 02:42:54;;;;;;;4.28;0.80;;;;;;;3.42;100.00;96491.28;2065450;28;20057;-56
2024/01/23 02:43:55;;;;;;;2.10;0.70;;;;;;;3.41;100.00;96479.34;2065139;28;20046;-56
2024/01/23 02:44:57;;;;;;;2.00;0.60;;;;;;;3.41;100.00;96493.03;2065028;28;20671;-56
2024/01/23 02:45:58;;;;;;;3.00;0.85;;;;;;;3.48;100.00;96455.31;2065466;28;20038;-56
2024/01/23 02:46:59;;;;;;;4.15;0.85;;;;;;;3.57;100.00;96490.28;2065558;28;20047;-57
2024/01/23 02:48:00;;;;;;;1.77;0.90;;;;;;;3.55;100.00;96505.69;2064894;28;20058;-56
2024/01/23 02:49:01;;;;;;;5.07;0.73;;;;;;;3.52;100.00;96493.75;2065330;28;20058;-56
2024/01/23 02:50:02;;;;;;;2.83;0.70;;;;;;;3.55;100.00;96508.25;2065175;28;20079;-56
2024/01/23 02:51:03;;;;;;;2.60;0.47;;;;;;;3.61;100.00;96479.97;2064994;28;20518;-56
2024/01/23 02:52:05;;;;;;;4.05;1.02;;;;;;;3.70;100.00;96496.97;2064850;28;20502;-55
2024/01/23 02:53:06;;;;;;;3.65;0.80;;;;;;;3.74;100.00;96508.88;2064438;28;20050;-56
2024/01/23 02:54:07;;;;;;;2.83;0.80;;;;;;;3.83;99.10;96487.41;2064963;28;20065;-55
2024/01/23 02:55:08;;;;;;;2.63;0.70;;;;;;;3.81;98.21;96486.56;2065219;28;20042;-56
2024/01/23 02:56:09;;;;;;;1.98;0.80;;;;;;;3.83;98.25;96485.69;2064895;28;20050;-55
2024/01/23 02:57:12;;;;;;;1.98;0.73;;;;;;;3.90;97.17;96491.56;2065415;28;20065;-55
2024/01/23 02:58:15;;;;;;;4.95;0.60;;;;;;;3.94;97.25;96490.66;2065810;28;20061;-56
2024/01/23 02:59:16;;;;;;;2.30;0.50;;;;;;;3.96;97.00;96491.50;2064964;28;20057;-55
2024/01/23 03:00:17;;;;;;;1.33;0.30;;;;;;;3.97;97.09;96500.91;2065481;28;20065;-56
2024/01/23 03:01:19;;;;;;;2.40;0.63;;;;;;;4.03;96.72;96510.25;2065343;28;20050;-56
2024/01/23 03:02:23;;;;;;;3.67;0.70;;;;;;;4.05;96.40;96523.94;2064817;28;20050;-55
2024/01/23 03:03:24;;;;;;;4.47;1.70;;;;;;;4.04;96.82;96547.94;2065461;28;20050;-56
2024/01/23 03:04:25;;;;;;;5.78;1.20;;;;;;;3.98;97.82;96523.16;2064311;28;20058;-55
2024/01/23 03:05:26;;;;;;;5.53;0.80;;;;;;;3.89;97.42;96510.44;2064642;28;20050;-57
2024/01/23 03:06:27;;;;;;;18.13;1.13;;;;;;;3.87;95.07;96510.44;2064483;28;20046;-58
2024/01/23 03:07:28;;;;;;;2.75;0.43;;;;;;;3.83;95.38;96533.66;2065559;28;20042;-57
2024/01/23 03:08:29;;;;;;;4.15;0.73;;;;;;;3.75;97.02;96546.59;2065471;28;20046;-58
2024/01/23 03:09:30;;;;;;;2.97;0.52;;;;;;;3.68;98.93;96516.69;2065627;28;20046;-59
2024/01/23 03:10:32;;;;;;;6.82;0.85;;;;;;;3.59;100.00;96530.50;2065423;28;20050;-60
2024/01/23 03:11:33;;;;;;;4.43;0.77;;;;;;;3.51;100.00;96524.59;2065335;28;20042;-59
2024/01/23 03:12:34;;;;;;;4.20;0.80;;;;;;;3.48;100.00;96533.19;2065644;28;20050;-58
2024/01/23 03:13:35;;;;;;;5.05;0.82;;;;;;;3.41;100.00;96534.09;2065435;28;20058;-58
2024/01/23 03:14:36;;;;;;;4.72;0.47;;;;;;;3.42;100.00;96537.50;2064910;28;20058;-59
2024/01/23 03:15:37;;;;;;;1.95;0.68;;;;;;;3.39;100.00;96545.25;2065107;28;20054;-58
2024/01/23 03:16:38;;;;;;;2.40;0.68;;;;;;;3.33;100.00;96548.72;2065025;28;20057;-58
2024/01/23 03:17:39;;;;;;;2.30;0.52;;;;;;;3.26;100.00;96542.81;2064925;28;20073;-58
2024/01/23 03:18:40;;;;;;;1.58;0.50;;;;;;;3.17;100.00;96547.19;2064812;28;20062;-58
2024/01/23 03:19:42;;;;;;;3.22;0.60;;;;;;;3.11;100.00;96552.38;2065397;28;20057;-58
2024/01/23 03:20:43;;;;;;;1.95;0.55;;;;;;;3.13;100.00;96540.38;2065399;28;20046;-58
2024/01/23 03:21:44;;;;;;;0.90;0.47;;;;;;;3.13;100.00;96541.25;2065493;28;20046;-57
2024/01/23 03:22:45;;;;;;;4.38;1.08;;;;;;;3.11;100.00;96540.41;2065390;28;20046;-57
2024/01/23 03:23:47;;;;;;;1.35;0.47;;;;;;;3.09;100.00;96536.97;2065434;28;20098;-57
2024/01/23 03:24:48;;;;;;;11.00;0.75;;;;;;;3.09;100.00;96548.09;2065577;28;20053;-57
2024/01/23 03:25:50;;;;;;;3.47;0.50;;;;;;;3.11;100.00;96537.81;2065462;28;20494;-57
2024/01/23 03:26:51;;;;;;;6.93;0.68;;;;;;;3.13;100.00;96538.69;2064966;28;20058;-56
2024/01/23 03:27:52;;;;;;;3.25;0.85;;;;;;;3.11;100.00;96540.41;2065249;28;20050;-56
2024/01/23 03:28:54;;;;;;;2.50;0.85;;;;;;;3.18;100.00;96531.78;2064738;28;20487;-57
2024/01/23 03:29:55;;;;;;;3.92;0.90;;;;;;;3.19;100.00;96538.59;2065343;28;20056;-57
2024/01/23 03:30:56;;;;;;;0.77;0.28;;;;;;;3.22;100.00;96556.53;2065438;28;20050;-56
2024/01/23 03:31:57;;;;;;;1.58;0.68;;;;;;;3.19;100.00;96546.31;2065466;28;20483;-57
2024/01/23 03:32:58;;;;;;;3.67;1.00;;;;;;;3.20;100.00;96557.41;2064716;28;20053;-57
2024/01/23 03:33:59;;;;;;;2.08;0.80;;;;;;;3.21;100.00;96567.69;2065110;28;20058;-56
2024/01/23 03:35:01;;;;;;;3.08;0.85;;;;;;;3.20;100.00;96560.81;2064505;28;20062;-57
2024/01/23 03:36:02;;;;;;;1.65;0.50;;;;;;;3.17;100.00;96550.59;2064753;28;20058;-56
2024/01/23 03:37:03;;;;;;;1.23;0.68;;;;;;;3.19;100.00;96556.56;2064913;28;20050;-56
2024/01/23 03:38:04;;;;;;;4.43;0.88;;;;;;;3.21;100.00;96559.97;2064768;28;20050;-56
2024/01/23 03:39:06;;;;;;;4.40;0.80;;;;;;;3.26;100.00;96557.34;2064459;28;20403;-56
2024/01/23 03:40:08;;;;;;;4.38;0.82;;;;;;;3.24;100.00;96554.81;2064690;28;20058;-56
2024/01/23 03:41:09;;;;;;;4.00;0.88;;;;;;;3.18;100.00;96556.56;2065407;28;20046;-56
2024/01/23 03:42:11;;;;;;;2.30;0.75;;;;;;;3.21;100.00;96575.38;2065201;28;20054;-56
2024/01/23 03:43:12;;;;;;;3.00;0.70;;;;;;;3.24;100.00;96565.09;2064804;28;20058;-56
2024/01/23 03:44:13;;;;;;;3.45;0.88;;;;;;;3.30;100.00;96553.91;2065295;28;20065;-57
2024/01/23 03:45:14;;;;;;;4.10;1.00;;;;;;;3.30;100.00;96566.75;2065457;28;20046;-56
2024/01/23 03:46:15;;;;;;;2.05;0.57;;;;;;;3.23;100.00;96562.50;2064679;28;20058;-56
2024/01/23 03:47:16;;;;;;;3.65;0.60;;;;;;;3.16;100.00;96566.03;2065284;28;20050;-56
2024/01/23 03:48:18;;;;;;;4.13;0.88;;;;;;;3.12;100.00;96562.63;2065252;28;20042;-57
2024/01/23 03:49:20;;;;;;;3.42;0.85;;;;;;;3.11;100.00;96562.66;2065247;28;20065;-56
2024/01/23 03:50:21;;;;;;;6.22;1.00;;;;;;;3.04;100.00;96566.97;2064807;28;20061;-56
2024/01/23 03:51:22;;;;;;;1.65;0.45;;;;;;;3.04;100.00;96578.06;2064892;28;20397;-56
2024/01/23 03:52:23;;;;;;;8.23;1.40;;;;;;;3.09;100.00;96570.34;2065391;28;20054;-56
2024/01/23 03:53:24;;;;;;;5.07;0.73;;;;;;;3.15;100.00;96554.88;2065434;28;20042;-57
2024/01/23 03:54:25;;;;;;;2.60;0.90;;;;;;;3.20;100.00;96540.28;2065124;28;20482;-57
2024/01/23 03:55:26;;;;;;;1.75;0.57;;;;;;;3.28;100.00;96551.34;2064858;28;20050;-57
2024/01/23 03:56:27;;;;;;;1.40;0.60;;;;;;;3.33;100.00;96569.28;2066894;28;20045;-56
2024/01/23 03:57:28;;;;;;;3.63;0.90;;;;;;;3.29;100.00;96568.47;2065922;28;20054;-56
2024/01/23 03:58:29;;;;;;;6.03;0.75;;;;;;;3.26;100.00;96583.03;2066968;28;20046;-56
2024/01/23 03:59:30;;;;;;;2.58;0.70;;;;;;;3.28;100.00;96574.44;2066756;28;20046;-55
2024/01/23 04:00:32;;;;;;;4.63;0.90;;;;;;;3.27;100.00;96588.16;2066462;28;20054;-56
2024/01/23 04:01:33;;;;;;;4.10;1.00;;;;;;;3.27;100.00;96601.00;2066800;28;20043;-56
2024/01/23 04:02:37;;;;;;;2.40;0.57;;;;;;;3.29;100.00;96604.41;2066195;28;20046;-56
2024/01/23 04:03:38;;;;;;;4.00;1.08;;;;;;;3.35;100.00;96600.06;2066134;28;20061;-56
2024/01/23 04:04:39;;;;;;;3.35;0.80;;;;;;;3.32;100.00;96588.13;2066846;28;20055;-56
2024/01/23 04:05:40;;;;;;;2.33;0.60;;;;;;;3.43;100.00;96593.16;2066706;28;20493;-55
2024/01/23 04:06:41;;;;;;;3.05;1.30;;;;;;;3.42;100.00;96583.72;2066158;28;20061;-56
2024/01/23 04:07:42;;;;;;;4.88;1.00;;;;;;;3.47;99.15;96572.53;2066801;28;20046;-56
2024/01/23 04:08:43;;;;;;;7.05;1.05;;;;;;;3.52;98.68;96575.06;2065876;28;20486;-56
2024/01/23 04:09:44;;;;;;;6.60;0.98;;;;;;;3.61;97.75;96543.28;2066865;28;20212;-56
2024/01/23 04:10:45;;;;;;;4.97;0.80;;;;;;;3.67;97.28;96590.31;2066666;28;20057;-55
2024/01/23 04:11:47;;;;;;;5.13;1.27;;;;;;;3.64;96.94;96589.53;2066329;28;20058;-56
2024/01/23 04:12:48;;;;;;;3.50;1.02;;;;;;;3.58;97.64;96592.97;2066698;28;20379;-56
2024/01/23 04:13:49;;;;;;;5.85;1.38;;;;;;;3.54;97.95;96589.59;2066361;28;20054;-56
2024/01/23 04:14:50;;;;;;;2.95;0.77;;;;;;;3.53;98.22;96587.91;2066589;28;20050;-56
2024/01/23 04:15:51;;;;;;;4.55;1.00;;;;;;;3.54;98.00;96581.06;2065999;28;20436;-55
2024/01/23 04:16:52;;;;;;;3.25;0.77;;;;;;;3.57;97.46;96593.00;2066634;28;20045;-55
2024/01/23 04:17:55;;;;;;;3.92;0.73;;;;;;;3.70;95.93;96587.72;2066814;28;20057;-56
2024/01/23 04:18:56;;;;;;;4.28;0.90;;;;;;;3.67;95.88;96590.31;2066610;28;20046;-55
2024/01/23 04:19:57;;;;;;;11.57;1.10;;;;;;;3.69;95.76;96580.91;2066698;28;20050;-56
2024/01/23 04:20:58;;;;;;;3.10;0.85;;;;;;;3.69;95.27;96596.31;2066390;28;20058;-55
2024/01/23 04:21:59;;;;;;;5.93;0.95;;;;;;;3.67;95.69;96594.63;2066612;28;20046;-56
2024/01/23 04:23:00;;;;;;;6.28;1.20;;;;;;;3.64;95.53;96594.66;2065523;28;20422;-56
2024/01/23 04:24:02;;;;;;;5.82;0.90;;;;;;;3.63;95.53;96592.94;2066028;28;20061;-56
2024/01/23 04:25:04;;;;;;;1.70;0.60;;;;;;;3.58;95.65;96590.41;2066280;28;20065;-56
2024/01/23 04:26:06;;;;;;;3.40;0.90;;;;;;;3.60;95.71;96567.28;2066524;28;20051;-57
2024/01/23 04:27:07;;;;;;;5.38;0.90;;;;;;;3.63;95.48;96606.63;2065480;28;20490;-55
2024/01/23 04:28:09;;;;;;;3.70;0.63;;;;;;;3.67;95.56;96599.75;2066334;28;20038;-56
2024/01/23 04:29:10;;;;;;;2.95;0.82;;;;;;;3.64;95.67;96600.63;2066297;28;20061;-56
2024/01/23 04:30:11;;;;;;;4.95;1.40;;;;;;;3.62;96.22;96601.53;2066511;28;20050;-55
2024/01/23 04:31:13;;;;;;;6.18;1.13;;;;;;;3.52;96.45;96608.44;2065946;28;20057;-56
2024/01/23 04:32:14;;;;;;;1.70;0.68;;;;;;;3.45;97.44;96611.97;2065822;28;20038;-56
2024/01/23 04:33:15;;;;;;;5.03;0.75;;;;;;;3.40;97.92;96603.47;2066701;28;20514;-56
2024/01/23 04:34:16;;;;;;;6.97;2.00;;;;;;;3.35;98.29;96610.34;2066557;28;20049;-56
2024/01/23 04:35:17;;;;;;;6.30;0.80;;;;;;;3.35;98.72;96580.38;2066449;28;20513;-56
2024/01/23 04:36:18;;;;;;;2.50;0.60;;;;;;;3.34;98.53;96601.75;2066636;28;20038;-55
2024/01/23 04:37:19;;;;;;;9.75;1.67;;;;;;;3.26;99.06;96612.13;2066513;28;20471;-55
2024/01/23 04:38:20;;;;;;;4.07;1.00;;;;;;;3.24;99.26;96613.00;2065856;28;20051;-56
2024/01/23 04:39:22;;;;;;;5.75;0.90;;;;;;;3.19;100.00;96607.06;2066590;28;20149;-56
2024/01/23 04:40:23;;;;;;;2.45;0.85;;;;;;;3.17;100.00;96609.63;2065828;28;20046;-55
2024/01/23 04:41:24;;;;;;;1.42;0.65;;;;;;;3.18;100.00;96619.06;2065539;28;20062;-56
2024/01/23 04:42:25;;;;;;;4.15;0.90;;;;;;;3.23;100.00;96626.69;2066536;28;20046;-55
2024/01/23 04:43:26;;;;;;;4.43;1.20;;;;;;;3.24;99.91;96616.41;2066647;28;20042;-55
2024/01/23 04:44:28;;;;;;;5.05;0.88;;;;;;;3.21;100.00;96621.59;2066666;28;20042;-55
2024/01/23 04:45:29;;;;;;;19.65;2.38;;;;;;;3.20;100.00;96619.88;2066726;28;20061;-55
2024/01/23 04:46:30;;;;;;;6.53;1.20;;;;;;;3.13;100.00;96623.38;2065915;28;20073;-56
2024/01/23 04:47:31;;;;;;;3.38;0.65;;;;;;;3.08;100.00;96630.25;2066422;28;20046;-55
2024/01/23 04:48:33;;;;;;;6.38;0.90;;;;;;;3.05;100.00;96638.81;2066164;28;20046;-55